Time;durP1;ratioP1;P1;durP2;ratioP2;P2;SDS_P1;SDS_P2;PMS_P1;PMS_P2;Temp;Humidity;BMP_temperature;BMP_pressure;BME280_temperature;BME280_humidity;BME280_pressure;Samples;Min_cycle;Max_cycle;Signal;HPM_P1;HPM_P2
2023/07/17 00:01:58;;;;;;;3.37;3.07;;;24.80;82.50;;;;;;5008241;28;20486;-56
2023/07/17 00:04:24;;;;;;;4.50;4.10;;;24.80;82.60;;;;;;5008572;28;20464;-55
2023/07/17 00:06:51;;;;;;;3.87;3.57;;;24.80;83.40;;;;;;5003102;28;20459;-53
2023/07/17 00:09:18;;;;;;;3.53;3.23;;;24.80;82.60;;;;;;5000551;28;20468;-55
2023/07/17 00:11:44;;;;;;;3.50;3.20;;;24.80;82.80;;;;;;5006823;28;20456;-53
2023/07/17 00:14:11;;;;;;;3.83;3.33;;;24.80;82.80;;;;;;5006310;28;20501;-54
2023/07/17 00:16:38;;;;;;;6.37;3.50;;;24.80;82.80;;;;;;5006065;28;20470;-55
2023/07/17 00:19:06;;;;;;;3.80;3.50;;;24.80;82.80;;;;;;5005633;28;20820;-54
2023/07/17 00:21:32;;;;;;;4.63;4.17;;;24.80;82.90;;;;;;5002713;28;20487;-54
2023/07/17 00:23:59;;;;;;;3.57;3.27;;;24.80;82.90;;;;;;5004745;28;21059;-56
2023/07/17 00:26:26;;;;;;;3.60;3.20;;;24.80;82.90;;;;;;5004325;28;20466;-51
2023/07/17 00:29:16;;;;;;;4.83;4.30;;;24.80;83.30;;;;;;5006210;28;20464;-56
2023/07/17 00:31:44;;;;;;;3.67;3.33;;;24.80;83.00;;;;;;5005554;28;20532;-56
2023/07/17 00:34:10;;;;;;;4.37;3.97;;;24.70;82.90;;;;;;5007476;28;20501;-53
2023/07/17 00:36:37;;;;;;;3.93;3.50;;;24.80;83.10;;;;;;5006351;28;20483;-55
2023/07/17 00:39:04;;;;;;;3.70;3.40;;;24.70;83.00;;;;;;5002045;28;20495;-53
2023/07/17 00:41:31;;;;;;;3.73;3.20;;;24.70;83.10;;;;;;5001310;28;20473;-56
2023/07/17 00:43:57;;;;;;;3.93;3.50;;;24.70;83.00;;;;;;4998592;28;20922;-55
2023/07/17 00:46:24;;;;;;;4.40;4.00;;;24.70;83.10;;;;;;5000155;28;20993;-53
2023/07/17 00:48:52;;;;;;;3.00;2.80;;;24.70;83.10;;;;;;5002998;28;20466;-54
2023/07/17 00:51:19;;;;;;;3.60;3.30;;;24.70;83.10;;;;;;5002466;28;20461;-55
2023/07/17 00:53:46;;;;;;;3.27;2.97;;;24.70;83.20;;;;;;5006151;28;20466;-49
2023/07/17 00:56:13;;;;;;;3.80;3.50;;;24.70;83.20;;;;;;5007663;28;20460;-53
2023/07/17 00:58:40;;;;;;;4.23;3.80;;;24.70;83.20;;;;;;5005069;28;20475;-56
2023/07/17 01:01:08;;;;;;;3.20;2.90;;;24.70;83.30;;;;;;5003419;28;20463;-53
2023/07/17 01:03:35;;;;;;;3.87;3.50;;;24.70;83.40;;;;;;5014362;28;20769;-53
2023/07/17 01:06:03;;;;;;;3.73;3.43;;;24.70;83.30;;;;;;5016525;28;20474;-53
2023/07/17 01:08:30;;;;;;;5.00;3.50;;;24.70;83.30;;;;;;5011552;28;21050;-56
2023/07/17 01:10:56;;;;;;;4.00;3.63;;;24.70;83.40;;;;;;5006125;28;20456;-53
2023/07/17 01:13:23;;;;;;;4.80;3.40;;;24.70;83.50;;;;;;5001774;28;20497;-55
2023/07/17 01:15:50;;;;;;;3.30;3.00;;;24.70;83.50;;;;;;5001902;28;20486;-51
2023/07/17 01:18:17;;;;;;;3.93;3.63;;;24.70;83.50;;;;;;5007950;28;20460;-54
2023/07/17 01:20:43;;;;;;;4.40;4.00;;;24.70;83.50;;;;;;5014657;28;20459;-55
2023/07/17 01:23:11;;;;;;;2.93;2.73;;;24.70;83.50;;;;;;5009474;28;21771;-53
2023/07/17 01:25:38;;;;;;;3.17;2.80;;;24.70;83.60;;;;;;5002515;28;21053;-52
2023/07/17 01:28:05;;;;;;;4.80;3.40;;;24.60;83.50;;;;;;5008538;28;20467;-55
2023/07/17 01:30:31;;;;;;;4.20;3.90;;;24.60;83.50;;;;;;5003690;28;20461;-53
2023/07/17 01:32:58;;;;;;;4.10;3.37;;;24.60;83.60;;;;;;5003191;28;20536;-54
2023/07/17 01:35:25;;;;;;;3.50;3.20;;;24.60;83.60;;;;;;5003067;28;20575;-57
2023/07/17 01:37:52;;;;;;;3.70;3.33;;;24.60;83.60;;;;;;5005987;28;20963;-54
2023/07/17 01:40:20;;;;;;;3.40;3.10;;;24.60;83.60;;;;;;5009036;28;20475;-51
2023/07/17 01:42:46;;;;;;;3.70;3.33;;;24.60;83.60;;;;;;5005227;28;20488;-55
2023/07/17 01:45:13;;;;;;;3.40;3.10;;;24.60;83.70;;;;;;5001720;28;20979;-56
2023/07/17 01:47:40;;;;;;;3.50;3.20;;;24.60;83.70;;;;;;5006179;28;20462;-53
2023/07/17 01:50:06;;;;;;;3.57;3.27;;;24.60;83.70;;;;;;5008318;28;20488;-57
2023/07/17 01:52:33;;;;;;;4.70;4.27;;;24.60;83.70;;;;;;5005455;28;21088;-54
2023/07/17 01:55:00;;;;;;;3.10;2.70;;;24.60;83.70;;;;;;5008185;28;20478;-52
2023/07/17 01:57:28;;;;;;;3.67;3.30;;;24.60;83.80;;;;;;5003562;28;20462;-53
2023/07/17 01:59:55;;;;;;;3.17;2.87;;;24.60;83.90;;;;;;5004885;28;20459;-52
2023/07/17 02:02:21;;;;;;;4.23;3.83;;;24.60;83.90;;;;;;5005331;28;20462;-53
2023/07/17 02:04:48;;;;;;;3.33;3.03;;;24.60;83.90;;;;;;5003255;28;20491;-55
2023/07/17 02:07:15;;;;;;;3.80;3.43;;;24.60;84.00;;;;;;5005128;28;20464;-56
2023/07/17 02:09:41;;;;;;;4.07;3.67;;;24.60;84.10;;;;;;5005486;28;20840;-56
2023/07/17 02:12:09;;;;;;;4.37;3.97;;;24.60;84.00;;;;;;5003398;28;20573;-57
2023/07/17 02:14:37;;;;;;;3.50;3.20;;;24.60;84.10;;;;;;5008948;28;21018;-55
2023/07/17 02:17:03;;;;;;;3.57;3.23;;;24.60;84.10;;;;;;5002200;28;20459;-57
2023/07/17 02:19:30;;;;;;;3.70;3.40;;;24.60;84.10;;;;;;5005903;28;20478;-57
2023/07/17 02:21:57;;;;;;;3.40;3.10;;;24.60;84.10;;;;;;4999499;28;21243;-54
2023/07/17 02:24:23;;;;;;;4.63;3.53;;;24.60;84.20;;;;;;4997287;28;20511;-57
2023/07/17 02:26:50;;;;;;;3.70;3.37;;;24.60;84.20;;;;;;5006826;28;21083;-53
2023/07/17 02:29:17;;;;;;;4.17;3.77;;;24.60;84.20;;;;;;4999324;28;20472;-55
2023/07/17 02:31:45;;;;;;;2.93;2.60;;;24.60;84.30;;;;;;4995156;28;21658;-56
2023/07/17 02:34:12;;;;;;;3.97;3.57;;;24.60;84.20;;;;;;5000629;28;20817;-55
2023/07/17 02:36:39;;;;;;;3.67;3.27;;;24.60;84.20;;;;;;5000092;28;20509;-54
2023/07/17 02:39:05;;;;;;;4.00;3.60;;;24.60;84.20;;;;;;5005269;28;20474;-53
2023/07/17 02:41:32;;;;;;;3.67;3.37;;;24.60;84.30;;;;;;5003581;28;21139;-52
2023/07/17 02:43:59;;;;;;;3.77;3.47;;;24.50;84.20;;;;;;5004643;28;20456;-53
2023/07/17 02:46:25;;;;;;;4.27;3.87;;;24.50;85.00;;;;;;4994747;28;21005;-55
2023/07/17 02:48:53;;;;;;;3.60;3.00;;;24.50;84.30;;;;;;5001382;28;20462;-55
2023/07/17 02:51:20;;;;;;;3.60;3.13;;;24.60;84.40;;;;;;5000108;28;20471;-53
2023/07/17 02:53:47;;;;;;;3.50;3.20;;;24.50;84.30;;;;;;5003221;28;20458;-55
2023/07/17 02:56:13;;;;;;;3.27;2.93;;;24.50;84.40;;;;;;4996677;28;20694;-50
2023/07/17 02:58:42;;;;;;;4.33;3.93;;;24.50;84.30;;;;;;4997966;28;20464;-51
2023/07/17 03:01:09;;;;;;;3.47;3.17;;;24.50;84.40;;;;;;4998336;28;20696;-52
2023/07/17 03:03:36;;;;;;;3.33;3.03;;;24.50;84.40;;;;;;5003873;28;20582;-57
2023/07/17 03:06:04;;;;;;;3.10;2.80;;;24.50;84.40;;;;;;5005183;28;20958;-53
2023/07/17 03:08:31;;;;;;;3.93;3.07;;;24.50;84.30;;;;;;5008702;28;20808;-57
2023/07/17 03:10:57;;;;;;;2.77;2.50;;;24.50;84.40;;;;;;5001963;28;20474;-52
2023/07/17 03:13:24;;;;;;;3.00;2.70;;;24.50;84.50;;;;;;4997330;28;20466;-56
2023/07/17 03:15:51;;;;;;;3.77;3.47;;;24.50;84.50;;;;;;5000521;28;21629;-54
2023/07/17 03:18:18;;;;;;;3.60;3.30;;;24.50;84.50;;;;;;4996365;28;20494;-55
2023/07/17 03:20:45;;;;;;;3.47;3.00;;;24.50;84.50;;;;;;4998219;28;20467;-57
2023/07/17 03:23:13;;;;;;;3.00;2.70;;;24.50;84.60;;;;;;5000451;28;20474;-57
2023/07/17 03:25:42;;;;;;;2.70;2.50;;;24.50;84.60;;;;;;4998920;28;21040;-57
2023/07/17 03:28:10;;;;;;;3.23;2.97;;;24.50;84.50;;;;;;4999374;28;20545;-51
2023/07/17 03:30:37;;;;;;;3.70;3.17;;;24.50;84.60;;;;;;4996569;28;20463;-55
2023/07/17 03:33:04;;;;;;;3.40;3.10;;;24.50;84.60;;;;;;4998990;28;20474;-53
2023/07/17 03:35:30;;;;;;;3.93;3.33;;;24.50;84.60;;;;;;5002080;28;20487;-54
2023/07/17 03:37:57;;;;;;;3.77;3.47;;;24.50;84.60;;;;;;4996546;28;20460;-56
2023/07/17 03:40:25;;;;;;;3.90;3.60;;;24.50;84.70;;;;;;5000147;28;20459;-54
2023/07/17 03:42:52;;;;;;;3.90;3.60;;;24.50;84.60;;;;;;4998244;28;21039;-52
2023/07/17 03:45:18;;;;;;;2.87;2.37;;;24.50;84.80;;;;;;5001930;28;20467;-54
2023/07/17 03:47:45;;;;;;;3.50;3.20;;;24.50;84.80;;;;;;4998585;28;20466;-53
2023/07/17 03:50:12;;;;;;;3.07;2.80;;;24.50;84.80;;;;;;5000875;28;20463;-54
2023/07/17 03:52:39;;;;;;;4.37;3.10;;;24.50;84.80;;;;;;4995529;28;22405;-51
2023/07/17 03:55:06;;;;;;;5.13;3.13;;;24.50;84.80;;;;;;5001019;28;22005;-55
2023/07/17 03:57:34;;;;;;;3.30;3.00;;;24.50;84.90;;;;;;5014855;28;20487;-52
2023/07/17 04:00:01;;;;;;;3.50;3.20;;;24.50;84.90;;;;;;5002416;28;20475;-51
2023/07/17 04:02:28;;;;;;;3.03;2.73;;;24.50;84.90;;;;;;5004837;28;20463;-50
2023/07/17 04:04:56;;;;;;;2.97;2.77;;;24.50;84.90;;;;;;5013054;28;20455;-53
2023/07/17 04:07:23;;;;;;;2.83;2.63;;;24.40;84.80;;;;;;5001695;28;20509;-53
2023/07/17 04:09:49;;;;;;;3.40;3.10;;;24.40;84.90;;;;;;5005652;28;20454;-53
2023/07/17 04:12:16;;;;;;;3.53;3.23;;;24.40;84.90;;;;;;5001701;28;20463;-52
2023/07/17 04:14:44;;;;;;;2.97;2.77;;;24.40;84.90;;;;;;5000069;28;20465;-52
2023/07/17 04:17:11;;;;;;;3.07;2.80;;;24.40;84.90;;;;;;4995025;28;20480;-56
2023/07/17 04:19:38;;;;;;;3.20;2.90;;;24.40;85.00;;;;;;5000006;28;21166;-53
2023/07/17 04:22:05;;;;;;;3.33;3.03;;;24.40;85.00;;;;;;4999011;28;20474;-57
2023/07/17 04:24:31;;;;;;;3.77;2.80;;;24.40;85.00;;;;;;5002221;28;21037;-51
2023/07/17 04:26:58;;;;;;;3.30;3.00;;;24.40;85.00;;;;;;5003520;28;20470;-53
2023/07/17 04:29:25;;;;;;;3.40;3.10;;;24.40;85.00;;;;;;4997837;28;20470;-56
2023/07/17 04:31:53;;;;;;;3.00;2.80;;;24.40;85.00;;;;;;4996857;28;20843;-56
2023/07/17 04:34:20;;;;;;;3.73;2.90;;;24.40;85.00;;;;;;4999009;28;20464;-54
2023/07/17 04:36:47;;;;;;;3.70;3.40;;;24.50;85.20;;;;;;4996970;28;20598;-54
2023/07/17 04:39:14;;;;;;;3.07;2.77;;;24.40;85.10;;;;;;5001776;28;20910;-54
2023/07/17 04:41:40;;;;;;;2.30;2.10;;;24.40;85.10;;;;;;4997213;28;20455;-56
2023/07/17 04:44:07;;;;;;;2.70;2.50;;;24.40;85.20;;;;;;4996065;28;20474;-53
2023/07/17 04:46:34;;;;;;;3.03;2.73;;;24.40;85.30;;;;;;5003210;28;21113;-52
2023/07/17 04:49:02;;;;;;;3.37;3.07;;;24.40;85.20;;;;;;5000155;28;20467;-55
2023/07/17 04:51:29;;;;;;;2.70;2.50;;;24.40;86.10;;;;;;4992880;28;20873;-54
2023/07/17 04:53:56;;;;;;;3.27;2.97;;;24.40;85.30;;;;;;5000477;28;20478;-53
2023/07/17 04:56:22;;;;;;;3.63;3.33;;;24.40;85.30;;;;;;5008138;28;20847;-54
2023/07/17 04:58:49;;;;;;;3.50;2.70;;;24.40;85.30;;;;;;5006716;28;20481;-55
2023/07/17 05:01:16;;;;;;;3.20;2.90;;;24.40;85.30;;;;;;4997356;28;20952;-52
2023/07/17 05:03:42;;;;;;;3.37;3.00;;;24.40;85.40;;;;;;5001607;28;20860;-54
2023/07/17 05:06:10;;;;;;;2.53;2.33;;;24.40;85.40;;;;;;5004897;28;20494;-55
2023/07/17 05:08:37;;;;;;;2.50;2.30;;;24.40;85.50;;;;;;5014254;28;20459;-54
2023/07/17 05:11:04;;;;;;;3.03;2.73;;;24.40;85.40;;;;;;5010583;28;20467;-57
2023/07/17 05:13:31;;;;;;;3.27;2.73;;;24.40;85.50;;;;;;5003173;28;20459;-55
2023/07/17 05:15:58;;;;;;;2.77;2.50;;;24.40;85.50;;;;;;4996013;28;20492;-53
2023/07/17 05:18:25;;;;;;;3.40;3.10;;;24.40;85.50;;;;;;4997604;28;21216;-55
2023/07/17 05:20:52;;;;;;;3.90;3.00;;;24.40;85.60;;;;;;4994711;28;20453;-57
2023/07/17 05:23:20;;;;;;;2.63;2.27;;;24.40;85.60;;;;;;4996708;28;20463;-55
2023/07/17 05:25:53;;;;;;;3.17;2.80;;;24.40;85.70;;;;;;5000398;28;20573;-53
2023/07/17 05:28:19;;;;;;;2.70;2.27;;;24.40;85.70;;;;;;4998565;28;20487;-56
2023/07/17 05:30:46;;;;;;;3.80;3.00;;;24.40;85.70;;;;;;5001854;28;20486;-56
2023/07/17 05:33:13;;;;;;;3.20;2.90;;;24.40;85.70;;;;;;5005703;28;20459;-53
2023/07/17 05:35:40;;;;;;;2.23;2.03;;;24.40;85.70;;;;;;5001859;28;20491;-57
2023/07/17 05:38:06;;;;;;;4.00;2.87;;;24.40;85.70;;;;;;5003735;28;20467;-53
2023/07/17 05:40:36;;;;;;;2.70;2.50;;;24.50;86.40;;;;;;5010536;28;20474;-56
2023/07/17 05:43:03;;;;;;;2.23;2.03;;;24.50;85.90;;;;;;5001511;28;20513;-54
2023/07/17 05:45:30;;;;;;;2.77;2.57;;;24.50;86.00;;;;;;5000715;28;20460;-57
2023/07/17 05:47:56;;;;;;;2.70;2.50;;;24.50;86.00;;;;;;5005533;28;20546;-52
2023/07/17 05:50:23;;;;;;;2.17;1.97;;;24.50;86.10;;;;;;5000459;28;20467;-55
2023/07/17 05:52:50;;;;;;;3.10;2.40;;;24.50;86.10;;;;;;4999508;28;21096;-55
2023/07/17 05:55:17;;;;;;;2.30;2.10;;;24.50;86.80;;;;;;4998213;28;20995;-57
2023/07/17 05:57:45;;;;;;;2.40;2.20;;;24.50;86.10;;;;;;5005143;28;20482;-52
2023/07/17 06:00:14;;;;;;;2.70;2.50;;;24.50;86.10;;;;;;5000914;28;20827;-55
2023/07/17 06:02:41;;;;;;;4.83;3.10;;;24.50;86.00;;;;;;5005103;28;20463;-59
2023/07/17 06:05:09;;;;;;;2.90;2.60;;;24.50;86.10;;;;;;5002068;28;20558;-57
2023/07/17 06:07:35;;;;;;;3.43;2.80;;;24.50;86.10;;;;;;5008108;28;20471;-55
2023/07/17 06:10:02;;;;;;;2.67;2.47;;;24.50;86.10;;;;;;5009450;28;20460;-52
2023/07/17 06:12:29;;;;;;;2.67;2.47;;;24.50;86.10;;;;;;5008946;28;20975;-53
2023/07/17 06:14:57;;;;;;;2.43;2.23;;;24.50;86.10;;;;;;5003058;28;20483;-52
2023/07/17 06:17:24;;;;;;;3.00;2.77;;;24.50;86.10;;;;;;4994527;28;20478;-56
2023/07/17 06:19:51;;;;;;;2.40;2.20;;;24.60;86.20;;;;;;4997898;28;20459;-54
2023/07/17 06:22:17;;;;;;;2.73;2.47;;;24.60;86.30;;;;;;4995873;28;20466;-51
2023/07/17 06:24:44;;;;;;;2.63;2.03;;;24.60;86.20;;;;;;4995641;28;20826;-53
2023/07/17 06:27:11;;;;;;;2.20;2.00;;;24.60;86.20;;;;;;5007810;28;20463;-52
2023/07/17 06:29:37;;;;;;;3.50;3.20;;;24.60;86.30;;;;;;5006012;28;20993;-55
2023/07/17 06:32:07;;;;;;;2.73;2.23;;;24.60;86.20;;;;;;5008376;28;20467;-56
2023/07/17 06:34:34;;;;;;;2.10;1.90;;;24.60;86.30;;;;;;5015580;28;20462;-57
2023/07/17 06:37:02;;;;;;;2.90;2.40;;;24.60;86.30;;;;;;5012845;28;20482;-55
2023/07/17 06:39:28;;;;;;;1.93;1.73;;;24.60;87.00;;;;;;5008825;28;20468;-53
2023/07/17 06:41:56;;;;;;;2.67;2.47;;;24.60;86.30;;;;;;5013848;28;20510;-55
2023/07/17 06:44:23;;;;;;;2.30;1.93;;;24.60;86.20;;;;;;5004402;28;20463;-57
2023/07/17 06:46:49;;;;;;;2.30;2.10;;;24.60;86.20;;;;;;5001674;28;20475;-52
2023/07/17 06:49:17;;;;;;;2.50;2.30;;;24.60;86.30;;;;;;5002779;28;20475;-51
2023/07/17 06:51:44;;;;;;;2.97;2.77;;;24.60;86.20;;;;;;5001450;28;20464;-56
2023/07/17 06:54:11;;;;;;;2.43;2.20;;;24.70;86.30;;;;;;5002658;28;20979;-53
2023/07/17 06:56:37;;;;;;;1.70;1.60;;;24.70;86.40;;;;;;5002656;28;20486;-53
2023/07/17 06:59:04;;;;;;;2.17;2.00;;;24.70;86.40;;;;;;4998968;28;21102;-53
2023/07/17 07:01:31;;;;;;;2.37;2.10;;;24.70;86.30;;;;;;5000267;28;20870;-51
2023/07/17 07:03:57;;;;;;;3.07;1.83;;;24.70;86.30;;;;;;5000220;28;20467;-54
2023/07/17 07:06:25;;;;;;;2.03;1.93;;;24.70;86.30;;;;;;5001043;28;20467;-53
2023/07/17 07:08:52;;;;;;;2.00;1.80;;;24.70;86.30;;;;;;5002003;28;21125;-56
2023/07/17 07:11:19;;;;;;;2.17;1.97;;;24.70;86.30;;;;;;5001253;28;21011;-54
2023/07/17 07:13:46;;;;;;;2.27;2.07;;;24.70;86.30;;;;;;5002692;28;20470;-55
2023/07/17 07:16:12;;;;;;;2.13;1.63;;;24.80;86.40;;;;;;5000533;28;20543;-55
2023/07/17 07:18:39;;;;;;;2.50;2.03;;;24.70;86.30;;;;;;5000006;28;20463;-56
2023/07/17 07:21:06;;;;;;;3.03;2.67;;;24.80;86.50;;;;;;5000028;28;20502;-54
2023/07/17 07:23:35;;;;;;;2.37;2.17;;;24.80;86.40;;;;;;5001182;28;20470;-55
2023/07/17 07:26:01;;;;;;;2.00;1.87;;;24.80;86.40;;;;;;5001912;28;20470;-54
2023/07/17 07:28:28;;;;;;;2.30;2.07;;;24.80;86.50;;;;;;5000822;28;20463;-54
2023/07/17 07:30:56;;;;;;;2.40;2.20;;;24.80;86.40;;;;;;5001515;28;20459;-55
2023/07/17 07:33:22;;;;;;;2.13;2.00;;;24.80;86.40;;;;;;4998534;28;20550;-55
2023/07/17 07:35:49;;;;;;;2.40;1.97;;;24.80;86.40;;;;;;5001157;28;20498;-55
2023/07/17 07:38:16;;;;;;;2.17;1.97;;;24.80;86.40;;;;;;5001092;28;20499;-54
2023/07/17 07:40:44;;;;;;;2.40;2.20;;;24.80;86.40;;;;;;4999477;28;20467;-53
2023/07/17 07:43:11;;;;;;;2.23;2.00;;;24.80;86.40;;;;;;5000962;28;20467;-57
2023/07/17 07:45:37;;;;;;;3.33;1.90;;;24.80;86.40;;;;;;5001666;28;20459;-55
2023/07/17 07:48:04;;;;;;;2.13;1.93;;;24.80;86.30;;;;;;5001972;28;20463;-53
2023/07/17 07:50:31;;;;;;;2.00;1.80;;;24.80;86.40;;;;;;5001136;28;20482;-53
2023/07/17 07:52:58;;;;;;;2.50;2.30;;;24.80;86.30;;;;;;5001234;28;20464;-55
2023/07/17 07:55:24;;;;;;;2.33;2.13;;;24.80;86.20;;;;;;4999863;28;20767;-54
2023/07/17 07:57:52;;;;;;;2.40;2.20;;;24.80;86.30;;;;;;4999964;28;20496;-54
2023/07/17 08:00:19;;;;;;;2.73;2.53;;;24.80;86.20;;;;;;4998553;28;20489;-55
2023/07/17 08:02:46;;;;;;;2.20;2.03;;;24.80;86.20;;;;;;5000569;28;20465;-56
2023/07/17 08:05:13;;;;;;;6.90;4.60;;;24.80;86.00;;;;;;5000336;28;21015;-54
2023/07/17 08:07:39;;;;;;;6.13;5.10;;;24.90;82.20;;;;;;5002074;28;20468;-55
2023/07/17 08:10:07;;;;;;;7.40;6.57;;;24.80;77.90;;;;;;5001888;28;20536;-54
2023/07/17 08:12:33;;;;;;;7.47;5.77;;;24.70;76.30;;;;;;5002885;28;20458;-55
2023/07/17 08:15:01;;;;;;;6.77;5.13;;;24.60;75.20;;;;;;5000618;28;20455;-56
2023/07/17 08:17:28;;;;;;;8.93;5.10;;;24.60;74.60;;;;;;4999398;28;20506;-51
2023/07/17 08:19:55;;;;;;;9.70;5.43;;;24.60;74.10;;;;;;5002032;28;20468;-56
2023/07/17 08:22:21;;;;;;;5.50;5.00;;;24.50;73.50;;;;;;5002062;28;20460;-53
2023/07/17 08:24:49;;;;;;;7.97;6.40;;;24.50;73.70;;;;;;5002192;28;20910;-55
2023/07/17 08:27:16;;;;;;;7.93;5.30;;;24.50;73.10;;;;;;4997763;28;20467;-55
2023/07/17 08:29:43;;;;;;;7.93;5.70;;;24.40;72.90;;;;;;5000438;28;20466;-55
2023/07/17 08:32:11;;;;;;;7.70;5.17;;;24.40;72.80;;;;;;5010531;28;22292;-56
2023/07/17 08:34:38;;;;;;;8.30;5.90;;;24.40;72.00;;;;;;5011246;28;20460;-55
2023/07/17 08:37:05;;;;;;;6.57;5.30;;;24.40;71.90;;;;;;5008763;28;20494;-52
2023/07/17 08:39:32;;;;;;;9.00;5.10;;;24.40;73.10;;;;;;5012152;28;20447;-53
2023/07/17 08:41:59;;;;;;;7.20;6.30;;;24.40;71.80;;;;;;5004192;28;20459;-54
2023/07/17 08:44:27;;;;;;;8.47;6.17;;;24.40;72.10;;;;;;5009415;28;20474;-56
2023/07/17 08:46:54;;;;;;;12.77;5.93;;;24.40;72.30;;;;;;5010977;28;20475;-56
2023/07/17 08:49:25;;;;;;;11.73;6.80;;;24.40;72.20;;;;;;5006903;28;20470;-55
2023/07/17 08:51:53;;;;;;;6.60;5.40;;;24.40;72.60;;;;;;5003918;28;20451;-54
2023/07/17 08:54:20;;;;;;;7.97;5.60;;;24.40;72.50;;;;;;5001319;28;20474;-56
2023/07/17 08:56:49;;;;;;;7.30;6.03;;;24.40;73.70;;;;;;5005118;28;20602;-53
2023/07/17 08:59:17;;;;;;;6.53;5.60;;;24.40;72.80;;;;;;5002470;28;20959;-54
2023/07/17 09:01:45;;;;;;;8.43;6.10;;;24.40;72.90;;;;;;5008230;28;20548;-53
2023/07/17 09:04:14;;;;;;;9.83;5.60;;;24.40;73.30;;;;;;5012923;28;20989;-57
2023/07/17 09:06:42;;;;;;;11.77;5.50;;;24.40;73.50;;;;;;5010288;28;20473;-55
2023/07/17 09:09:09;;;;;;;9.00;5.80;;;24.40;73.40;;;;;;5018154;28;20469;-52
2023/07/17 09:11:36;;;;;;;8.00;5.73;;;24.40;73.90;;;;;;5013464;28;20463;-55
2023/07/17 09:14:03;;;;;;;11.03;5.90;;;24.40;73.50;;;;;;5006461;28;20475;-53
2023/07/17 09:16:30;;;;;;;7.93;6.13;;;24.40;73.70;;;;;;5007343;28;20468;-56
2023/07/17 09:18:57;;;;;;;9.00;5.90;;;24.40;73.90;;;;;;5009736;28;20504;-54
2023/07/17 09:21:26;;;;;;;11.10;5.20;;;24.50;73.90;;;;;;5006942;28;20628;-56
2023/07/17 09:23:55;;;;;;;6.17;5.03;;;24.50;73.90;;;;;;5007723;28;20477;-55
2023/07/17 09:26:23;;;;;;;9.40;5.07;;;24.40;73.90;;;;;;5003775;28;20891;-55
2023/07/17 09:28:52;;;;;;;6.83;4.87;;;24.40;73.80;;;;;;5005950;28;20454;-52
2023/07/17 09:31:25;;;;;;;6.37;5.40;;;24.40;73.90;;;;;;5008492;28;20463;-55
2023/07/17 09:33:52;;;;;;;7.87;5.47;;;24.40;73.80;;;;;;5003239;28;20462;-56
2023/07/17 09:36:19;;;;;;;5.80;5.20;;;24.40;74.30;;;;;;5001705;28;21122;-57
2023/07/17 09:38:50;;;;;;;6.60;5.30;;;24.40;74.60;;;;;;5005951;28;20480;-53
2023/07/17 09:41:23;;;;;;;7.87;5.20;;;24.40;74.60;;;;;;5004876;28;20463;-55
2023/07/17 09:43:55;;;;;;;6.00;5.20;;;24.40;74.90;;;;;;5006067;28;20455;-56
2023/07/17 09:46:22;;;;;;;6.53;5.20;;;24.40;75.00;;;;;;5006248;28;20477;-52
2023/07/17 09:48:52;;;;;;;11.03;5.40;;;24.50;75.30;;;;;;5008723;28;20471;-54
2023/07/17 09:51:19;;;;;;;7.90;5.73;;;24.40;75.30;;;;;;5010068;28;21407;-53
2023/07/17 09:53:47;;;;;;;6.70;5.97;;;24.50;75.50;;;;;;5007501;28;20542;-56
2023/07/17 09:56:15;;;;;;;7.47;4.97;;;24.50;75.90;;;;;;5005918;28;20462;-54
2023/07/17 09:58:45;;;;;;;7.70;5.87;;;24.50;76.10;;;;;;5007691;28;20493;-55
2023/07/17 10:01:15;;;;;;;8.00;4.97;;;24.50;76.20;;;;;;5006579;28;20462;-56
2023/07/17 10:03:45;;;;;;;7.23;6.27;;;24.50;76.20;;;;;;5006522;28;20467;-57
2023/07/17 10:06:13;;;;;;;6.63;5.67;;;24.50;76.50;;;;;;5003698;28;20970;-54
2023/07/17 10:08:41;;;;;;;6.53;5.10;;;24.50;76.60;;;;;;5007080;28;20468;-54
2023/07/17 10:11:08;;;;;;;6.77;5.33;;;24.50;76.60;;;;;;5007187;28;20459;-50
2023/07/17 10:13:35;;;;;;;8.10;6.03;;;24.50;76.70;;;;;;5005383;28;20458;-56
2023/07/17 10:16:03;;;;;;;7.60;5.20;;;24.50;76.80;;;;;;5009734;28;20471;-54
2023/07/17 10:18:31;;;;;;;6.63;5.33;;;24.50;77.00;;;;;;5002495;28;20662;-54
2023/07/17 10:20:58;;;;;;;6.43;5.20;;;24.50;77.10;;;;;;5001876;28;20455;-53
2023/07/17 10:23:25;;;;;;;5.10;4.57;;;24.50;77.20;;;;;;5007945;28;20467;-55
2023/07/17 10:25:52;;;;;;;6.70;5.80;;;24.50;77.40;;;;;;5009240;28;21002;-56
2023/07/17 10:28:31;;;;;;;7.60;5.20;;;24.50;77.50;;;;;;5007989;28;20455;-55
2023/07/17 10:31:08;;;;;;;8.50;5.30;;;24.50;77.70;;;;;;5008214;28;20490;-56
2023/07/17 10:33:37;;;;;;;5.80;4.70;;;24.50;77.70;;;;;;5007443;28;21067;-55
2023/07/17 10:36:04;;;;;;;6.50;5.00;;;24.50;77.80;;;;;;5006655;28;20803;-54
2023/07/17 10:38:34;;;;;;;6.73;5.37;;;24.50;77.80;;;;;;5008072;28;20501;-55
2023/07/17 10:41:03;;;;;;;7.70;5.43;;;24.50;77.90;;;;;;5008955;28;20459;-54
2023/07/17 10:43:29;;;;;;;7.00;5.00;;;24.50;77.90;;;;;;5011766;28;20561;-57
2023/07/17 10:45:56;;;;;;;5.30;4.47;;;24.50;77.90;;;;;;5011992;28;20462;-54
2023/07/17 10:48:27;;;;;;;8.83;5.30;;;24.50;78.10;;;;;;5012712;28;20470;-53
2023/07/17 10:50:57;;;;;;;5.87;5.20;;;24.50;77.90;;;;;;5007766;28;20448;-52
2023/07/17 10:53:24;;;;;;;5.30;4.17;;;24.50;77.00;;;;;;5006348;28;20573;-51
2023/07/17 10:55:51;;;;;;;6.57;4.60;;;24.50;76.50;;;;;;5009207;28;20463;-56
2023/07/17 10:58:19;;;;;;;6.07;4.03;;;24.50;76.70;;;;;;5009731;28;20488;-54
2023/07/17 11:00:47;;;;;;;4.47;3.97;;;24.50;76.70;;;;;;5006786;28;20459;-54
2023/07/17 11:03:14;;;;;;;7.30;4.20;;;24.50;76.70;;;;;;5004402;28;20468;-50
2023/07/17 11:05:44;;;;;;;6.43;4.40;;;24.50;76.40;;;;;;5003647;28;20464;-55
2023/07/17 11:08:13;;;;;;;5.07;3.57;;;24.50;76.00;;;;;;5007911;28;20494;-51
2023/07/17 11:10:41;;;;;;;5.73;3.53;;;24.50;75.90;;;;;;5006648;28;20468;-53
2023/07/17 11:13:09;;;;;;;5.60;3.10;;;24.50;75.60;;;;;;5007424;28;20500;-52
2023/07/17 11:15:37;;;;;;;5.37;4.63;;;24.40;75.20;;;;;;5007810;28;20459;-55
2023/07/17 11:18:05;;;;;;;4.93;3.60;;;24.50;75.90;;;;;;5008653;28;21046;-51
2023/07/17 11:20:33;;;;;;;4.47;4.07;;;24.40;75.70;;;;;;5005299;28;20463;-51
2023/07/17 11:23:01;;;;;;;5.07;4.10;;;24.40;75.90;;;;;;5007733;28;20467;-48
2023/07/17 11:25:29;;;;;;;3.77;3.40;;;24.40;76.20;;;;;;5006145;28;20467;-53
2023/07/17 11:28:00;;;;;;;8.57;3.80;;;24.50;76.40;;;;;;5011029;28;20466;-51
2023/07/17 11:30:28;;;;;;;4.60;3.80;;;24.50;77.50;;;;;;5008248;28;20468;-51
2023/07/17 11:33:07;;;;;;;4.93;3.60;;;24.50;76.80;;;;;;5013629;28;20463;-58
2023/07/17 11:35:45;;;;;;;4.40;3.70;;;24.50;76.80;;;;;;5003271;28;21077;-49
2023/07/17 11:38:15;;;;;;;6.13;3.37;;;24.50;77.00;;;;;;5008669;28;20490;-51
2023/07/17 11:40:55;;;;;;;6.37;4.00;;;24.50;77.10;;;;;;5015026;28;20450;-51
2023/07/17 11:43:27;;;;;;;4.20;3.80;;;24.50;77.10;;;;;;5009402;28;20455;-50
2023/07/17 11:45:56;;;;;;;4.60;3.67;;;24.50;77.20;;;;;;5008639;28;20469;-49
2023/07/17 11:48:25;;;;;;;4.90;3.67;;;24.50;77.20;;;;;;5016042;28;20832;-56
2023/07/17 11:50:55;;;;;;;4.30;3.90;;;24.50;77.30;;;;;;5003098;28;20603;-53
2023/07/17 11:53:23;;;;;;;7.60;4.87;;;24.50;77.50;;;;;;5002801;28;20466;-57
2023/07/17 11:55:51;;;;;;;5.60;4.53;;;24.50;77.30;;;;;;5002838;28;20466;-55
2023/07/17 11:58:19;;;;;;;4.93;3.97;;;24.50;77.50;;;;;;5013910;28;21029;-54
2023/07/17 12:00:47;;;;;;;4.63;3.43;;;24.50;77.50;;;;;;5012986;28;20459;-54
2023/07/17 12:03:14;;;;;;;4.83;3.40;;;24.50;77.60;;;;;;5005508;28;20506;-55
2023/07/17 12:05:41;;;;;;;4.87;4.10;;;24.50;77.70;;;;;;5014179;28;20463;-50
2023/07/17 12:08:08;;;;;;;4.17;3.70;;;24.50;77.70;;;;;;5009152;28;20459;-50
2023/07/17 12:10:36;;;;;;;3.93;3.60;;;24.50;77.80;;;;;;5010769;28;20460;-50
2023/07/17 12:13:04;;;;;;;5.53;3.37;;;24.50;77.80;;;;;;5013624;28;20459;-58
2023/07/17 12:15:31;;;;;;;3.97;3.53;;;24.50;77.70;;;;;;5009359;28;20462;-57
2023/07/17 12:17:58;;;;;;;5.17;3.97;;;24.50;77.80;;;;;;5019406;28;20482;-58
2023/07/17 12:20:26;;;;;;;4.97;3.53;;;24.50;77.80;;;;;;5016746;28;20438;-54
2023/07/17 12:22:54;;;;;;;5.67;3.53;;;24.50;77.80;;;;;;5008854;28;20459;-53
2023/07/17 12:25:21;;;;;;;4.30;3.43;;;24.50;77.20;;;;;;5014584;28;20493;-49
2023/07/17 12:27:49;;;;;;;6.10;3.77;;;24.50;74.90;;;;;;5019517;28;20463;-51
2023/07/17 12:30:19;;;;;;;6.50;3.03;;;24.50;73.50;;;;;;5016149;28;20829;-58
2023/07/17 12:32:46;;;;;;;6.53;3.90;;;24.50;72.90;;;;;;5012821;28;20474;-55
2023/07/17 12:35:13;;;;;;;6.73;3.33;;;24.40;71.60;;;;;;5017342;28;20490;-53
2023/07/17 12:37:39;;;;;;;6.73;3.60;;;24.40;71.90;;;;;;5010476;28;20463;-54
2023/07/17 12:40:08;;;;;;;6.33;3.50;;;24.40;71.00;;;;;;5012547;28;20460;-50
2023/07/17 12:42:34;;;;;;;4.83;3.77;;;24.40;71.10;;;;;;5011195;28;20460;-57
2023/07/17 12:45:02;;;;;;;4.50;3.60;;;24.30;70.70;;;;;;5012749;28;20855;-54
2023/07/17 12:47:29;;;;;;;5.50;3.97;;;24.30;70.50;;;;;;5015404;28;20447;-54